There is a communication problem. Go directly to the Meteoalarm site : www.meteoalarm.eu and check the Weather-warnings there .

Nearby METAR Reports

 

KSJC - San Jose, California, USA
Distance from station: NØ 14km
Oppdatert: 08/12/2022 19:53
Hovedsaklig skyet
Hovedsaklig skyet
 Vind fra SSØ
Vind: SSØ 20 km/h
Temperatur: 12°C
Duggpunkt: 7°C
Fuktighet: 72%
Barometer: 1026.4 hPa
Clouds: Hovedsaklig skyet
Visibility: 16 km
Cloud details: Delvis skyet 1676 m
Hovedsaklig skyet 2438 m
Hovedsaklig skyet 3048 m
2022/12/08 18:53 KSJC 081853Z 15011KT 10SM SCT055 BKN080 BKN100 12/07 A3031 RMK AO2 SLP262 T01170072
KNUQ - Moffett Nas/Mtn, California, USA
Distance from station: N 14km
Oppdatert: 08/12/2022 20:10
Klart
Klart
 Vind fra SØ
Vind: SØ 13 km/h
Temperatur: 12°C
Duggpunkt: 7°C
Fuktighet: 72%
Barometer: 1026.1 hPa
Clouds: Klart
Visibility: 16 km
2022/12/08 19:10 KNUQ 081910Z AUTO 13007KT 10SM CLR 12/07 A3030 RMK AO2
 
KPAO - Palo Alto, California, USA
Distance from station: NNV 23km
Oppdatert: 08/12/2022 19:47
Hovedsaklig skyet
Hovedsaklig skyet
 Vind fra SØ
Vind: SØ 9 km/h
Temperatur: 10°C
Wind Chill: 9°C
Duggpunkt: 6°C
Fuktighet: 76%
Barometer: 1026.4 hPa
Clouds: Hovedsaklig skyet
Visibility: 16 km
Cloud details: Hovedsaklig skyet 5486 m
2022/12/08 18:47 KPAO 081847Z 13005KT 10SM BKN180 10/06 A3031
KRHV - San Jose/Reid, California, USA
Distance from station: ØNØ 19km
Oppdatert: 08/12/2022 19:52
Hovedsaklig skyet
Hovedsaklig skyet
 Vind fra SSØ
Vind: SSØ 9 km/h
Temperatur: 12°C
Duggpunkt: 7°C
Fuktighet: 72%
Barometer: 1026.4 hPa
Clouds: Hovedsaklig skyet
Visibility: 16 km
Cloud details: Hovedsaklig skyet 2438 m
2022/12/08 18:52 KRHV 081852Z 16005KT 10SM BKN080 12/07 A3031
 
KOAK - Oakland, California, USA
Distance from station: NNV 50km
Oppdatert: 08/12/2022 19:53
Overskyet
Overskyet
 Vind fra SSØ
Vind: SSØ 13 km/h
Temperatur: 10°C
Wind Chill: 8°C
Duggpunkt: 6°C
Fuktighet: 76%
Barometer: 1026.4 hPa
Clouds: Overskyet
Visibility: 16 km
Cloud details: Few Clouds 1829 m
Overskyet 3962 m
2022/12/08 18:53 KOAK 081853Z 15007KT 10SM FEW060 OVC130 10/06 A3031 RMK AO2 SLP263 T01000061
KSQL - San Carlos Airpo, California, USA
Distance from station: NV 34km
Oppdatert: 08/12/2022 19:47
Hovedsaklig skyet
Hovedsaklig skyet
 Vind fra calm
Vind: Stille
Temperatur: 9°C
Duggpunkt: 6°C
Fuktighet: 82%
Barometer: 1026.4 hPa
Clouds: Hovedsaklig skyet
Visibility: 16 km
Cloud details: Hovedsaklig skyet 5486 m
2022/12/08 18:47 KSQL 081847Z 00000KT 10SM BKN180 09/06 A3031
 
KSFO - San Francisco, California, USA
Distance from station: NV 49km
Oppdatert: 08/12/2022 19:56
Hovedsaklig skyet
Hovedsaklig skyet
 Vind fra Ø
Vind: Ø 6 km/h
Temperatur: 9°C
Duggpunkt: 7°C
Fuktighet: 87%
Barometer: 1026.1 hPa
Clouds: Hovedsaklig skyet
Visibility: 16 km
Cloud details: Few Clouds 457 m
Hovedsaklig skyet 5486 m
2022/12/08 18:56 KSFO 081856Z 09003KT 10SM FEW015 BKN180 09/07 A3030 RMK AO2 SLP258 T00940067
KE16 - San Martin, California, USA
Distance from station: ØSØ 43km
Oppdatert: 08/12/2022 20:15
Klart
Klart
 Vind fra calm
Vind: Stille
Temperatur: 7°C
Duggpunkt: 7°C
Fuktighet: 100%
Barometer: 1027.4 hPa
Clouds: Klart
Visibility: 16 km
2022/12/08 19:15 KE16 081915Z AUTO 00000KT 10SM CLR 07/07 A3034 RMK AO2 PWINO PNO
 
KWVI - Watsonville, California, USA
Distance from station: SSØ 44km
Oppdatert: 08/12/2022 19:53
Klart
Klart
 Vind fra calm
Vind: Stille
Temperatur: 8°C
Duggpunkt: 6°C
Fuktighet: 87%
Barometer: 1027.4 hPa
Clouds: Klart
Visibility: 16 km
2022/12/08 18:53 KWVI 081853Z AUTO 00000KT 10SM CLR 08/06 A3034 RMK AO2 SLP275 T00830061
KHAF - Half Moon Bay, California, USA
Distance from station: VNV 50km
Oppdatert: 08/12/2022 20:15
Hovedsaklig skyet
Hovedsaklig skyet
 Vind fra S
Vind: S 15 km/h
Temperatur: 12°C
Duggpunkt: 9°C
Fuktighet: 82%
Barometer: 1025.7 hPa
Clouds: Hovedsaklig skyet
Visibility: 16 km
Cloud details: Hovedsaklig skyet 1280 m
2022/12/08 19:15 KHAF 081915Z AUTO 17008KT 10SM BKN042 12/09 A3029 RMK AO2
 
KHWD - Hayward, California, USA
Distance from station: N 44km
Oppdatert: 08/12/2022 20:06
Klart
Klart
 Vind fra SSØ
Vind: SSØ 13 km/h
Temperatur: 11°C
Duggpunkt: 6°C
Fuktighet: 72%
Barometer: 1025.7 hPa
Clouds: Klart
Visibility: 16 km
2022/12/08 19:06 KHWD 081906Z 16007KT 10SM CLR 11/06 A3029 RMK AO2 T01110061
KLVK - Livermore, California, USA
Distance from station: NNØ 51km
Oppdatert: 08/12/2022 19:53
Klart
Klart
 Vind fra calm
Vind: Stille
Temperatur: 9°C
Duggpunkt: 5°C
Fuktighet: 76%
Barometer: 1026.1 hPa
Clouds: Klart
Visibility: 16 km
2022/12/08 18:53 KLVK 081853Z 00000KT 10SM CLR 09/05 A3030 RMK AO2 SLP259 T00890050